Time;durP1;ratioP1;P1;durP2;ratioP2;P2;SDS_P1;SDS_P2;PMS_P1;PMS_P2;Temp;Humidity;BMP_temperature;BMP_pressure;BME280_temperature;BME280_humidity;BME280_pressure;Samples;Min_cycle;Max_cycle;Signal;HPM_P1;HPM_P2
2023/06/06 00:00:04;;;;;;;;;;;;;;;19.48;44.87;99997.09;5132509;28;19912;-77
2023/06/06 00:02:30;;;;;;;;;;;;;;;19.42;45.23;99992.63;5131240;28;19915;-76
2023/06/06 00:04:57;;;;;;;;;;;;;;;19.35;45.12;99992.72;5132484;28;19979;-77
2023/06/06 00:07:22;;;;;;;;;;;;;;;19.33;45.75;99991.31;5132169;28;19969;-78
2023/06/06 00:09:48;;;;;;;;;;;;;;;19.38;43.93;99993.31;5132403;28;19915;-78
2023/06/06 00:12:13;;;;;;;;;;;;;;;19.34;44.71;99983.06;5132131;28;19990;-77
2023/06/06 00:14:40;;;;;;;;;;;;;;;19.22;44.84;99982.13;5132213;28;20399;-77
2023/06/06 00:17:06;;;;;;;;;;;;;;;19.13;44.72;99980.81;5130976;28;20356;-77
2023/06/06 00:19:32;;;;;;;;;;;;;;;19.02;45.22;99990.38;5132340;28;19907;-76
2023/06/06 00:21:58;;;;;;;;;;;;;;;18.94;45.38;99993.34;5132266;28;20045;-76
2023/06/06 00:24:24;;;;;;;;;;;;;;;18.91;45.68;99996.47;5132177;28;20006;-77
2023/06/06 00:26:49;;;;;;;;;;;;;;;18.85;45.02;99989.34;5132098;28;19915;-77
2023/06/06 00:29:15;;;;;;;;;;;;;;;18.77;45.52;99994.97;5131913;28;20296;-77
2023/06/06 00:31:40;;;;;;;;;;;;;;;18.63;45.83;99988.91;5133617;27;19954;-77
2023/06/06 00:34:05;;;;;;;;;;;;;;;18.52;46.85;99986.09;5135909;27;19978;-77
2023/06/06 00:36:30;;;;;;;;;;;;;;;18.42;46.19;99990.06;5135718;27;19911;-77
2023/06/06 00:38:56;;;;;;;;;;;;;;;18.38;46.07;99990.72;5135682;27;19951;-77
2023/06/06 00:41:21;;;;;;;;;;;;;;;18.32;47.19;99991.59;5134469;27;19915;-76
2023/06/06 00:43:46;;;;;;;;;;;;;;;18.21;47.24;99989.63;5135643;27;20415;-77
2023/06/06 00:46:13;;;;;;;;;;;;;;;18.05;47.21;99996.31;5134373;27;20402;-76
2023/06/06 00:48:38;;;;;;;;;;;;;;;17.96;46.72;99992.25;5135702;27;20375;-77
2023/06/06 00:51:05;;;;;;;;;;;;;;;17.97;48.15;99993.91;5135575;27;19911;-77
2023/06/06 00:53:30;;;;;;;;;;;;;;;17.99;46.88;99989.97;5135240;27;19920;-76
2023/06/06 00:55:57;;;;;;;;;;;;;;;18.00;47.09;99996.97;5135480;27;19911;-78
2023/06/06 00:58:23;;;;;;;;;;;;;;;18.03;47.52;99995.72;5135617;27;19953;-75
2023/06/06 01:00:48;;;;;;;;;;;;;;;18.02;46.86;99994.06;5135422;27;19955;-75
2023/06/06 01:03:14;;;;;;;;;;;;;;;18.02;48.30;99991.41;5135692;27;19919;-75
2023/06/06 01:05:39;;;;;;;;;;;;;;;17.98;47.60;99990.19;5135416;27;19912;-76
2023/06/06 01:08:05;;;;;;;;;;;;;;;17.94;48.94;99989.81;5135387;27;19937;-76
2023/06/06 01:10:34;;;;;;;;;;;;;;;17.88;47.91;99995.19;5135409;27;20349;-76
2023/06/06 01:12:59;;;;;;;;;;;;;;;17.76;49.14;99992.34;5133741;27;19959;-75
2023/06/06 01:15:31;;;;;;;;;;;;;;;17.67;49.10;99996.28;5135433;27;19964;-77
2023/06/06 01:17:57;;;;;;;;;;;;;;;17.63;48.98;99995.88;5135488;27;19919;-77
2023/06/06 01:20:23;;;;;;;;;;;;;;;17.62;49.87;99996.91;5135566;27;19911;-76
2023/06/06 01:22:49;;;;;;;;;;;;;;;17.48;49.26;99995.31;5135836;27;19911;-76
2023/06/06 01:25:19;;;;;;;;;;;;;;;17.40;49.36;100001.72;5135121;27;20391;-76
2023/06/06 01:27:47;;;;;;;;;;;;;;;17.29;51.26;100002.38;5135062;27;19927;-78
2023/06/06 01:30:13;;;;;;;;;;;;;;;17.24;49.17;99996.84;5147490;27;19918;-77
2023/06/06 01:32:43;;;;;;;;;;;;;;;17.16;49.33;99999.75;5152696;27;19915;-78
2023/06/06 01:35:12;;;;;;;;;;;;;;;17.07;49.13;100000.97;5134653;27;19912;-77
2023/06/06 01:37:47;;;;;;;;;;;;;;;17.04;49.99;99999.53;5134946;27;20003;-77
2023/06/06 01:40:13;;;;;;;;;;;;;;;16.99;50.88;100004.69;5135146;27;20354;-77
2023/06/06 01:42:45;;;;;;;;;;;;;;;16.91;51.26;99996.91;5133570;27;19911;-78
2023/06/06 01:45:11;;;;;;;;;;;;;;;16.89;50.10;99998.97;5134475;27;19911;-78
2023/06/06 01:47:38;;;;;;;;;;;;;;;16.86;49.72;99998.56;5134901;27;19911;-78
2023/06/06 01:50:07;;;;;;;;;;;;;;;16.80;50.47;100000.19;5134853;27;19911;-78
2023/06/06 01:52:41;;;;;;;;;;;;;;;16.70;52.11;100002.47;5134545;27;19915;-77
2023/06/06 01:55:07;;;;;;;;;;;;;;;16.69;49.87;99992.84;5134401;27;19937;-77
2023/06/06 01:57:33;;;;;;;;;;;;;;;16.67;51.32;99997.53;5134147;27;20300;-78
2023/06/06 01:59:58;;;;;;;;;;;;;;;16.67;49.87;100005.53;5134142;27;19911;-78
2023/06/06 02:02:24;;;;;;;;;;;;;;;16.65;50.80;100005.75;5134175;27;19986;-78
2023/06/06 02:04:50;;;;;;;;;;;;;;;16.62;50.81;100005.31;5134172;27;19911;-77
2023/06/06 02:07:16;;;;;;;;;;;;;;;16.60;51.23;100010.84;5134073;27;20387;-77
2023/06/06 02:09:44;;;;;;;;;;;;;;;16.55;52.18;100002.66;5133998;27;19918;-78
2023/06/06 02:12:09;;;;;;;;;;;;;;;16.48;51.11;100005.31;5133627;27;19918;-78
2023/06/06 02:14:35;;;;;;;;;;;;;;;16.47;50.81;100008.19;5133723;27;19911;-78
2023/06/06 02:17:00;;;;;;;;;;;;;;;16.41;52.24;100011.66;5133856;27;19911;-77
2023/06/06 02:19:26;;;;;;;;;;;;;;;16.37;51.92;100015.78;5134229;27;19911;-78
2023/06/06 02:21:51;;;;;;;;;;;;;;;16.32;52.57;100005.69;5132587;27;20384;-78
2023/06/06 02:24:17;;;;;;;;;;;;;;;16.27;52.06;100010.00;5133811;27;19915;-78
2023/06/06 02:26:42;;;;;;;;;;;;;;;16.27;51.44;100010.00;5133592;27;19918;-77
2023/06/06 02:29:07;;;;;;;;;;;;;;;16.24;51.74;100016.56;5133330;27;19920;-78
2023/06/06 02:31:33;;;;;;;;;;;;;;;16.28;50.91;100012.44;5133696;27;20376;-77
2023/06/06 02:33:58;;;;;;;;;;;;;;;16.24;52.42;100011.22;5133165;27;20357;-78
2023/06/06 02:36:25;;;;;;;;;;;;;;;16.20;52.38;100016.13;5133354;27;19989;-77
2023/06/06 02:38:50;;;;;;;;;;;;;;;16.19;51.62;100014.50;5132098;27;19918;-78
2023/06/06 02:41:16;;;;;;;;;;;;;;;16.19;52.59;100016.34;5133449;27;19990;-77
2023/06/06 02:43:42;;;;;;;;;;;;;;;16.19;53.99;100019.00;5133398;27;19911;-76
2023/06/06 02:46:07;;;;;;;;;;;;;;;16.01;53.80;100022.25;5133545;27;20323;-77
2023/06/06 02:48:33;;;;;;;;;;;;;;;15.96;53.79;100015.88;5133130;27;20418;-77
2023/06/06 02:50:59;;;;;;;;;;;;;;;16.05;52.55;100018.16;5133260;27;20484;-77
2023/06/06 02:53:24;;;;;;;;;;;;;;;16.08;54.30;100015.09;5132740;27;19926;-78
2023/06/06 02:55:49;;;;;;;;;;;;;;;16.12;51.91;100019.00;5133095;27;19950;-77
2023/06/06 02:58:44;;;;;;;;;;;;;;;16.10;52.79;100020.22;5131898;27;20380;-77
2023/06/06 03:01:12;;;;;;;;;;;;;;;16.03;54.54;100019.38;5119992;27;19961;-76
2023/06/06 03:03:37;;;;;;;;;;;;;;;15.96;54.02;100024.69;5133219;27;19907;-77
2023/06/06 03:06:03;;;;;;;;;;;;;;;16.08;52.98;100022.25;5133189;27;20460;-77
2023/06/06 03:08:28;;;;;;;;;;;;;;;16.11;53.10;100027.19;5133212;27;19968;-77
2023/06/06 03:10:53;;;;;;;;;;;;;;;16.05;53.26;100020.00;5133064;27;19919;-77
2023/06/06 03:13:19;;;;;;;;;;;;;;;16.08;53.79;100030.25;5132898;27;20289;-77
2023/06/06 03:15:44;;;;;;;;;;;;;;;16.10;54.06;100023.69;5132915;27;19926;-77
2023/06/06 03:18:16;;;;;;;;;;;;;;;16.00;54.67;100025.13;5132994;27;20362;-77
2023/06/06 03:20:44;;;;;;;;;;;;;;;15.98;52.43;100033.31;5133075;27;20411;-77
2023/06/06 03:23:10;;;;;;;;;;;;;;;15.99;53.33;100031.47;5132968;27;19965;-77
2023/06/06 03:25:36;;;;;;;;;;;;;;;16.04;52.29;100027.16;5133002;27;19919;-76
2023/06/06 03:28:02;;;;;;;;;;;;;;;15.99;54.43;100018.16;5132640;28;19926;-78
2023/06/06 03:30:27;;;;;;;;;;;;;;;16.03;53.58;100014.06;5132900;28;19912;-78
2023/06/06 03:32:52;;;;;;;;;;;;;;;16.05;52.30;100012.00;5132564;28;19915;-77
2023/06/06 03:35:18;;;;;;;;;;;;;;;16.04;53.31;100005.03;5132671;28;20411;-78
2023/06/06 03:37:43;;;;;;;;;;;;;;;16.07;54.88;100015.28;5132736;28;19911;-77
2023/06/06 03:40:09;;;;;;;;;;;;;;;16.00;54.67;100025.13;5132598;28;19911;-76
2023/06/06 03:42:34;;;;;;;;;;;;;;;15.92;54.94;100018.13;5132588;28;20346;-78
2023/06/06 03:45:00;;;;;;;;;;;;;;;15.95;54.91;100017.72;5132719;28;19912;-77
2023/06/06 03:47:25;;;;;;;;;;;;;;;16.02;53.71;100020.41;5132682;28;19907;-77
2023/06/06 03:49:50;;;;;;;;;;;;;;;15.97;54.52;100009.53;5132646;28;19912;-77
2023/06/06 03:52:16;;;;;;;;;;;;;;;15.77;55.89;100009.47;5132424;28;19918;-76
2023/06/06 03:57:26;;;;;;;;;;;;;;;15.87;55.43;100018.72;5132796;28;19964;-76
2023/06/06 03:59:51;;;;;;;;;;;;;;;15.96;55.14;100030.03;5132501;28;19912;-78
2023/06/06 04:02:17;;;;;;;;;;;;;;;15.93;56.61;100019.78;5132524;28;20284;-77
2023/06/06 04:04:43;;;;;;;;;;;;;;;16.07;54.12;100025.94;5132375;27;19911;-78
2023/06/06 04:07:08;;;;;;;;;;;;;;;16.19;54.75;100029.66;5135868;27;19919;-77
2023/06/06 04:09:33;;;;;;;;;;;;;;;16.24;55.07;100031.72;5136357;27;19911;-77
2023/06/06 04:11:58;;;;;;;;;;;;;;;16.27;54.19;100034.78;5136666;27;19912;-76
2023/06/06 04:14:24;;;;;;;;;;;;;;;16.30;56.23;100036.22;5136192;27;20055;-77
2023/06/06 04:16:49;;;;;;;;;;;;;;;16.37;55.76;100043.25;5136258;27;20311;-77
2023/06/06 04:19:14;;;;;;;;;;;;;;;16.41;55.71;100051.66;5136177;27;19937;-78
2023/06/06 04:21:40;;;;;;;;;;;;;;;16.43;55.98;100046.94;5136279;27;19918;-77
2023/06/06 04:24:05;;;;;;;;;;;;;;;16.33;55.24;100023.31;5136103;27;19959;-77
2023/06/06 04:26:31;;;;;;;;;;;;;;;16.57;56.39;100034.44;5134578;27;19912;-77
2023/06/06 04:28:58;;;;;;;;;;;;;;;16.63;57.15;100041.63;5135579;27;19919;-77
2023/06/06 04:31:25;;;;;;;;;;;;;;;16.71;56.48;100036.09;5135661;27;19918;-77
2023/06/06 04:33:53;;;;;;;;;;;;;;;16.82;56.71;100040.81;5135738;27;19966;-78
2023/06/06 04:36:19;;;;;;;;;;;;;;;16.92;55.25;100046.56;5135826;27;19911;-77
2023/06/06 04:38:46;;;;;;;;;;;;;;;16.98;54.38;100047.56;5135799;27;19911;-77
2023/06/06 04:41:12;;;;;;;;;;;;;;;17.01;54.95;100047.97;5135587;27;19958;-78
2023/06/06 04:43:38;;;;;;;;;;;;;;;17.05;55.29;100051.88;5135599;27;19933;-76
2023/06/06 04:46:03;;;;;;;;;;;;;;;17.13;55.71;100053.53;5134675;27;19911;-77
2023/06/06 04:48:28;;;;;;;;;;;;;;;17.16;55.85;100047.78;5136096;27;19912;-76
2023/06/06 04:50:55;;;;;;;;;;;;;;;17.25;55.03;100045.69;5136038;27;19918;-77
2023/06/06 04:53:21;;;;;;;;;;;;;;;17.35;54.34;100056.75;5135770;27;19915;-78
2023/06/06 04:55:47;;;;;;;;;;;;;;;17.38;55.90;100059.00;5134752;27;19918;-77
2023/06/06 04:58:14;;;;;;;;;;;;;;;17.40;55.24;100063.13;5136710;27;19947;-77
2023/06/06 05:00:42;;;;;;;;;;;;;;;17.49;53.87;100063.69;5148748;27;19915;-77
2023/06/06 05:03:07;;;;;;;;;;;;;;;17.53;54.88;100064.91;5141183;27;19915;-76
2023/06/06 05:05:32;;;;;;;;;;;;;;;17.58;55.65;100065.09;5135287;27;19915;-76
2023/06/06 05:07:57;;;;;;;;;;;;;;;17.62;54.76;100077.00;5135237;27;19931;-76
2023/06/06 05:10:23;;;;;;;;;;;;;;;17.67;54.10;100071.06;5135638;27;20021;-77
2023/06/06 05:12:48;;;;;;;;;;;;;;;17.72;54.09;100079.25;5135198;27;19919;-78
2023/06/06 05:15:13;;;;;;;;;;;;;;;17.71;55.35;100070.44;5135200;27;20032;-77
2023/06/06 05:17:38;;;;;;;;;;;;;;;17.75;55.33;100071.66;5134787;27;19911;-77
2023/06/06 05:20:08;;;;;;;;;;;;;;;17.82;54.34;100071.63;5135246;27;19911;-77
2023/06/06 05:22:34;;;;;;;;;;;;;;;17.91;54.63;100066.88;5134922;27;19911;-77
2023/06/06 05:24:59;;;;;;;;;;;;;;;17.95;54.43;100065.44;5133534;27;19919;-77
2023/06/06 05:27:24;;;;;;;;;;;;;;;17.89;54.27;100071.63;5134619;27;20017;-77
2023/06/06 05:29:50;;;;;;;;;;;;;;;17.97;54.40;100066.84;5134489;27;20368;-77
2023/06/06 05:32:15;;;;;;;;;;;;;;;18.01;54.92;100067.25;5133330;27;19953;-77
2023/06/06 05:34:40;;;;;;;;;;;;;;;17.99;54.89;100069.31;5134608;27;19915;-77
2023/06/06 05:37:06;;;;;;;;;;;;;;;17.91;54.93;100061.53;5134555;27;20010;-78
2023/06/06 05:39:31;;;;;;;;;;;;;;;18.02;54.67;100072.38;5133622;27;20300;-78
2023/06/06 05:41:56;;;;;;;;;;;;;;;18.11;54.29;100070.28;5133173;27;19964;-77
2023/06/06 05:44:22;;;;;;;;;;;;;;;18.12;55.55;100063.88;5134451;27;19915;-77
2023/06/06 05:46:53;;;;;;;;;;;;;;;18.21;54.52;100067.13;5134440;27;20390;-77
2023/06/06 05:49:18;;;;;;;;;;;;;;;18.30;54.25;100061.31;5134596;27;20012;-77
2023/06/06 05:51:43;;;;;;;;;;;;;;;18.37;54.60;100066.63;5134669;27;19912;-77
2023/06/06 05:54:12;;;;;;;;;;;;;;;18.44;54.63;100072.75;5134146;27;19962;-77
2023/06/06 05:56:38;;;;;;;;;;;;;;;18.49;53.02;100078.25;5134159;27;20310;-77
2023/06/06 05:59:03;;;;;;;;;;;;;;;18.49;53.05;100080.94;5134118;27;19912;-76
2023/06/06 06:01:30;;;;;;;;;;;;;;;18.43;55.93;100076.44;5134084;27;20341;-77
2023/06/06 06:03:55;;;;;;;;;;;;;;;18.52;55.07;100087.69;5132601;27;19958;-78
2023/06/06 06:06:20;;;;;;;;;;;;;;;18.61;54.81;100084.59;5134032;27;19964;-77
2023/06/06 06:08:48;;;;;;;;;;;;;;;18.66;54.34;100090.13;5119758;27;19915;-76
2023/06/06 06:11:14;;;;;;;;;;;;;;;18.74;53.26;100078.34;5112888;28;20007;-77
2023/06/06 06:13:39;;;;;;;;;;;;;;;18.75;54.22;100074.63;5113333;28;20011;-77
2023/06/06 06:16:04;;;;;;;;;;;;;;;18.81;54.23;100076.44;5113535;28;19998;-77
2023/06/06 06:18:30;;;;;;;;;;;;;;;18.83;55.14;100073.53;5113740;28;19962;-76
2023/06/06 06:20:55;;;;;;;;;;;;;;;18.94;53.93;100067.47;5112061;28;20394;-77
2023/06/06 06:23:20;;;;;;;;;;;;;;;19.07;53.40;100067.34;5117856;27;19955;-78
2023/06/06 06:25:46;;;;;;;;;;;;;;;19.07;53.48;100064.66;5121136;27;19916;-76
2023/06/06 06:28:18;;;;;;;;;;;;;;;19.13;53.28;100062.97;5112011;28;20316;-78
2023/06/06 06:30:43;;;;;;;;;;;;;;;19.25;52.58;100071.91;5111967;28;19995;-77
2023/06/06 06:33:08;;;;;;;;;;;;;;;19.41;51.25;100068.66;5126118;27;20368;-77
2023/06/06 06:35:34;;;;;;;;;;;;;;;19.52;51.38;100054.56;5112133;28;19912;-76
2023/06/06 06:37:59;;;;;;;;;;;;;;;19.60;51.73;100061.47;5114227;27;19915;-78
2023/06/06 06:40:25;;;;;;;;;;;;;;;19.62;51.85;100060.22;5113067;28;19985;-78
2023/06/06 06:42:50;;;;;;;;;;;;;;;19.73;50.81;100061.31;5113234;28;19972;-78
2023/06/06 06:45:19;;;;;;;;;;;;;;;19.80;50.76;100062.06;5111483;28;19915;-77
2023/06/06 06:47:44;;;;;;;;;;;;;;;19.67;51.43;100057.69;5112666;28;20289;-77
2023/06/06 06:50:11;;;;;;;;;;;;;;;19.66;51.72;100066.75;5102266;28;19922;-77
2023/06/06 06:52:37;;;;;;;;;;;;;;;19.76;52.14;100076.94;5110650;28;19912;-77
2023/06/06 06:55:06;;;;;;;;;;;;;;;19.83;51.26;100066.97;5115285;27;19947;-77
2023/06/06 06:57:51;;;;;;;;;;;;;;;19.85;51.54;100064.88;5112403;28;19991;-77
2023/06/06 07:00:18;;;;;;;;;;;;;;;19.89;52.00;100073.28;5129566;27;20075;-78
2023/06/06 07:02:44;;;;;;;;;;;;;;;19.88;51.90;100064.41;5131535;27;20300;-75
2023/06/06 07:05:10;;;;;;;;;;;;;;;19.85;51.55;100066.72;5132755;27;19907;-78
2023/06/06 07:07:42;;;;;;;;;;;;;;;19.93;51.73;100069.91;5118408;27;19916;-77
2023/06/06 07:10:07;;;;;;;;;;;;;;;20.06;51.23;100065.44;5092678;28;19919;-77
2023/06/06 07:12:32;;;;;;;;;;;;;;;20.17;50.49;100068.19;5091991;28;19992;-77
2023/06/06 07:14:58;;;;;;;;;;;;;;;20.29;51.77;100079.75;5091798;28;20373;-77
2023/06/06 07:17:25;;;;;;;;;;;;;;;20.39;50.71;100071.19;5094191;27;19912;-77
2023/06/06 07:19:50;;;;;;;;;;;;;;;20.47;50.37;100070.88;5099109;28;19965;-78
2023/06/06 07:22:15;;;;;;;;;;;;;;;20.53;49.81;100069.94;5127438;27;19912;-77
2023/06/06 07:24:41;;;;;;;;;;;;;;;20.60;49.47;100067.97;5127426;27;19946;-76
2023/06/06 07:27:08;;;;;;;;;;;;;;;20.64;49.48;100065.66;5111987;28;19912;-77
2023/06/06 07:29:33;;;;;;;;;;;;;;;20.71;48.94;100066.34;5119498;28;19968;-76
2023/06/06 07:31:59;;;;;;;;;;;;;;;20.77;48.51;100060.06;5133491;28;19911;-76
2023/06/06 07:34:24;;;;;;;;;;;;;;;20.83;47.90;100069.09;5133027;28;19916;-76
2023/06/06 07:36:49;;;;;;;;;;;;;;;20.97;48.15;100062.44;5113342;28;20028;-75
2023/06/06 07:39:15;;;;;;;;;;;;;;;20.96;47.62;100054.63;5112868;28;19926;-76
2023/06/06 07:41:40;;;;;;;;;;;;;;;21.03;47.92;100056.13;5130086;27;19915;-78
2023/06/06 07:44:06;;;;;;;;;;;;;;;21.07;46.86;100056.47;5118942;27;19912;-77
2023/06/06 07:46:31;;;;;;;;;;;;;;;21.12;46.90;100057.41;5116342;27;20342;-78
2023/06/06 07:48:58;;;;;;;;;;;;;;;21.12;46.35;100048.53;5116059;28;19912;-77
2023/06/06 07:51:23;;;;;;;;;;;;;;;21.12;47.17;100052.03;5116042;28;20003;-77
2023/06/06 07:53:49;;;;;;;;;;;;;;;21.17;47.11;100054.84;5115678;28;20463;-78
2023/06/06 07:56:14;;;;;;;;;;;;;;;21.22;47.01;100054.13;5136201;27;19916;-78
2023/06/06 07:58:46;;;;;;;;;;;;;;;21.28;45.75;100050.53;5136448;27;19976;-78
2023/06/06 08:01:12;;;;;;;;;;;;;;;21.31;46.58;100043.88;5136418;27;19912;-78
2023/06/06 08:03:37;;;;;;;;;;;;;;;21.41;46.64;100050.28;5136151;27;19918;-75
2023/06/06 08:06:03;;;;;;;;;;;;;;;21.61;46.02;100044.53;5114436;27;19912;-77
2023/06/06 08:08:28;;;;;;;;;;;;;;;21.75;45.69;100042.41;5115824;27;19923;-77
2023/06/06 08:10:53;;;;;;;;;;;;;;;21.83;45.27;100044.72;5116539;27;19961;-77
2023/06/06 08:13:19;;;;;;;;;;;;;;;21.94;44.50;100057.28;5115475;28;19915;-76
2023/06/06 08:15:44;;;;;;;;;;;;;;;21.99;43.27;100045.81;5115497;28;20433;-77
2023/06/06 08:18:09;;;;;;;;;;;;;;;22.07;43.15;100051.66;5115352;28;19912;-77
2023/06/06 08:20:35;;;;;;;;;;;;;;;22.22;44.36;100050.31;5115239;28;19912;-78
2023/06/06 08:23:00;;;;;;;;;;;;;;;22.30;42.06;100044.56;5129456;27;19916;-77
2023/06/06 08:25:25;;;;;;;;;;;;;;;22.32;41.72;100047.81;5134140;27;19972;-78
2023/06/06 08:27:51;;;;;;;;;;;;;;;22.24;42.66;100040.13;5129518;27;19943;-78
2023/06/06 08:30:16;;;;;;;;;;;;;;;22.31;43.64;100038.13;5115148;28;19947;-77
2023/06/06 08:32:41;;;;;;;;;;;;;;;22.42;43.52;100037.22;5115075;28;19916;-75
2023/06/06 08:35:07;;;;;;;;;;;;;;;22.56;43.37;100035.84;5119844;27;19924;-77
2023/06/06 08:37:32;;;;;;;;;;;;;;;22.66;41.90;100033.31;5114934;27;20455;-77
2023/06/06 08:39:57;;;;;;;;;;;;;;;22.79;42.04;100037.56;5113603;28;19912;-76
2023/06/06 08:42:24;;;;;;;;;;;;;;;22.81;41.58;100032.78;5114902;28;20395;-77
2023/06/06 08:44:51;;;;;;;;;;;;;;;22.80;40.69;100034.66;5113759;28;19912;-78
2023/06/06 08:47:17;;;;;;;;;;;;;;;22.88;42.22;100032.59;5115314;28;19912;-77
2023/06/06 08:49:43;;;;;;;;;;;;;;;23.01;42.83;100030.38;5114910;27;20380;-78
2023/06/06 08:52:08;;;;;;;;;;;;;;;23.18;42.08;100030.38;5114196;28;19919;-77
2023/06/06 08:54:34;;;;;;;;;;;;;;;23.39;42.24;100028.75;5128995;27;19927;-77
2023/06/06 08:57:07;;;;;;;;;;;;;;;23.56;40.61;100021.47;5134937;27;19968;-76
2023/06/06 08:59:34;;;;;;;;;;;;;;;23.73;41.68;100019.50;5134915;27;19912;-77
2023/06/06 09:02:00;;;;;;;;;;;;;;;23.90;41.40;100016.75;5134964;27;19963;-77
2023/06/06 09:04:26;;;;;;;;;;;;;;;24.05;41.35;100005.28;5135032;27;19915;-78
2023/06/06 09:06:56;;;;;;;;;;;;;;;24.16;39.11;100006.19;5135124;27;20366;-77
2023/06/06 09:09:22;;;;;;;;;;;;;;;24.23;39.77;100012.19;5119514;27;19922;-76
2023/06/06 09:11:47;;;;;;;;;;;;;;;24.32;40.27;100005.28;5114328;28;19912;-76
2023/06/06 09:14:12;;;;;;;;;;;;;;;24.38;38.92;100004.25;5128816;27;19919;-77
2023/06/06 09:16:38;;;;;;;;;;;;;;;24.55;38.71;100002.28;5135014;27;19911;-75
2023/06/06 09:19:05;;;;;;;;;;;;;;;24.71;38.49;100011.28;5134796;27;19918;-77
2023/06/06 09:21:32;;;;;;;;;;;;;;;24.82;38.78;100007.59;5133388;27;19911;-76
2023/06/06 09:23:57;;;;;;;;;;;;;;;25.05;37.74;99997.50;5099118;27;19923;-75
2023/06/06 09:26:23;;;;;;;;;;;;;;;25.10;38.06;100002.91;5093809;28;19916;-77
2023/06/06 09:28:49;;;;;;;;;;;;;;;25.34;38.28;100010.38;5093372;28;20003;-74
2023/06/06 09:31:30;;;;;;;;;;;;;;;25.56;37.30;100006.66;5092102;28;19995;-75
2023/06/06 09:33:56;;;;;;;;;;;;;;;25.71;36.07;99997.81;5093040;28;19969;-76
2023/06/06 09:36:22;;;;;;;;;;;;;;;25.88;36.20;99998.41;5099087;27;19916;-77
2023/06/06 09:38:48;;;;;;;;;;;;;;;26.07;38.29;99996.00;5093417;28;19984;-77
2023/06/06 09:41:13;;;;;;;;;;;;;;;26.20;37.46;99996.28;5116546;27;19915;-77
2023/06/06 09:43:39;;;;;;;;;;;;;;;26.34;37.17;99988.47;5133059;27;20299;-77
2023/06/06 09:46:05;;;;;;;;;;;;;;;26.51;36.11;99988.19;5134374;27;19911;-76
2023/06/06 09:48:31;;;;;;;;;;;;;;;26.58;35.50;99988.75;5133019;27;19911;-78
2023/06/06 09:50:57;;;;;;;;;;;;;;;26.73;35.27;99979.78;5130811;27;20344;-75
2023/06/06 09:53:25;;;;;;;;;;;;;;;26.76;35.51;99981.97;5114895;27;20317;-76
2023/06/06 09:55:51;;;;;;;;;;;;;;;26.81;35.13;99974.63;5132153;27;20467;-76
2023/06/06 09:58:19;;;;;;;;;;;;;;;27.06;35.20;99973.78;5119764;27;20010;-76
2023/06/06 10:00:46;;;;;;;;;;;;;;;27.31;34.60;99972.88;5105945;27;19916;-77
2023/06/06 10:03:18;;;;;;;;;;;;;;;27.48;35.11;99961.69;5112458;28;19964;-76
2023/06/06 10:05:45;;;;;;;;;;;;;;;27.61;34.41;99957.59;5113233;28;20366;-76
2023/06/06 10:08:10;;;;;;;;;;;;;;;27.53;32.73;99956.25;5112040;28;19911;-77
2023/06/06 10:10:37;;;;;;;;;;;;;;;27.67;33.30;99949.16;5113249;28;19923;-76
2023/06/06 10:13:02;;;;;;;;;;;;;;;27.76;34.10;99952.88;5113085;27;19927;-75
2023/06/06 10:15:28;;;;;;;;;;;;;;;27.82;32.15;99934.66;5099551;28;19947;-76
2023/06/06 10:17:54;;;;;;;;;;;;;;;28.15;33.06;99935.78;5113037;28;19939;-76
2023/06/06 10:20:20;;;;;;;;;;;;;;;28.43;33.04;99937.75;5131892;27;19920;-75
2023/06/06 10:22:45;;;;;;;;;;;;;;;28.52;31.57;99935.22;5132640;27;19941;-75
2023/06/06 10:25:12;;;;;;;;;;;;;;;28.52;32.33;99932.50;5122781;27;19916;-74
2023/06/06 10:27:56;;;;;;;;;;;;;;;28.39;31.76;99930.47;5124205;27;19927;-76
2023/06/06 10:30:39;;;;;;;;;;;;;;;28.53;31.89;99925.97;5131037;27;20387;-77
2023/06/06 10:33:14;;;;;;;;;;;;;;;28.51;29.75;99927.34;5100934;28;19916;-76
2023/06/06 10:38:24;;;;;;;;;;;;;;;28.63;32.12;99922.34;5112510;28;19934;-75
2023/06/06 10:40:50;;;;;;;;;;;;;;;28.69;31.19;99913.03;5118182;27;20399;-77
2023/06/06 10:43:36;;;;;;;;;;;;;;;28.89;30.72;99906.59;5118558;27;19926;-76
2023/06/06 10:46:02;;;;;;;;;;;;;;;29.18;31.20;99911.97;5117392;27;19920;-77
2023/06/06 10:48:38;;;;;;;;;;;;;;;29.43;29.81;99914.34;5119276;27;19920;-77
2023/06/06 10:51:03;;;;;;;;;;;;;;;29.53;30.09;99911.50;5112362;28;19912;-77
2023/06/06 10:53:28;;;;;;;;;;;;;;;29.62;30.51;99906.19;5110643;27;19927;-77
2023/06/06 10:55:54;;;;;;;;;;;;;;;29.50;30.34;99906.63;5110883;28;20415;-77
2023/06/06 10:58:26;;;;;;;;;;;;;;;29.41;28.66;99906.47;5112323;28;19934;-77
2023/06/06 11:00:56;;;;;;;;;;;;;;;29.29;30.63;99908.00;5119919;27;20361;-77
2023/06/06 11:03:41;;;;;;;;;;;;;;;29.51;29.98;99907.44;5119935;27;19916;-76
2023/06/06 11:06:07;;;;;;;;;;;;;;;29.80;28.73;99901.88;5112114;28;20010;-77
2023/06/06 11:08:32;;;;;;;;;;;;;;;29.85;30.71;99899.06;5123341;27;20384;-76
2023/06/06 11:11:13;;;;;;;;;;;;;;;29.92;29.87;99894.03;5124043;27;19923;-77
2023/06/06 11:13:47;;;;;;;;;;;;;;;30.07;30.38;99899.25;5112372;28;20285;-76
2023/06/06 11:16:13;;;;;;;;;;;;;;;30.10;31.05;99895.13;5110515;28;19912;-76
2023/06/06 11:18:41;;;;;;;;;;;;;;;30.10;30.75;99895.13;5129815;27;19915;-77
2023/06/06 11:21:07;;;;;;;;;;;;;;;30.08;29.00;99889.19;5132075;27;20007;-78
2023/06/06 11:23:41;;;;;;;;;;;;;;;30.27;29.73;99881.75;5132499;27;19968;-77
2023/06/06 11:26:10;;;;;;;;;;;;;;;30.55;29.30;99877.19;5117926;27;20006;-76
2023/06/06 11:28:35;;;;;;;;;;;;;;;30.66;29.60;99878.63;5111949;28;19920;-75
2023/06/06 11:31:01;;;;;;;;;;;;;;;30.39;29.98;99873.09;5110563;28;20353;-78
2023/06/06 11:33:26;;;;;;;;;;;;;;;30.60;30.76;99869.75;5111679;28;20404;-75
2023/06/06 11:35:55;;;;;;;;;;;;;;;30.82;29.14;99866.28;5111920;28;19912;-75
2023/06/06 11:38:20;;;;;;;;;;;;;;;30.68;28.37;99857.31;5112313;28;19912;-76
2023/06/06 11:40:46;;;;;;;;;;;;;;;30.74;28.76;99861.56;5120557;28;19918;-78
2023/06/06 11:43:12;;;;;;;;;;;;;;;31.02;28.67;99851.41;5118357;28;19916;-77
2023/06/06 11:45:37;;;;;;;;;;;;;;;31.32;28.44;99858.19;5111630;28;20405;-77
2023/06/06 11:48:03;;;;;;;;;;;;;;;31.39;26.90;99850.38;5111775;28;20400;-75
2023/06/06 11:50:28;;;;;;;;;;;;;;;31.36;29.28;99844.72;5111764;28;20436;-77
2023/06/06 11:52:53;;;;;;;;;;;;;;;31.50;28.21;99849.00;5110254;28;20431;-77
2023/06/06 11:55:18;;;;;;;;;;;;;;;31.65;27.89;99839.66;5112070;28;19915;-78
2023/06/06 11:57:44;;;;;;;;;;;;;;;31.54;29.08;99841.00;5125678;28;19918;-77
2023/06/06 12:00:14;;;;;;;;;;;;;;;31.56;27.87;99845.03;5109399;28;19916;-77
2023/06/06 12:02:40;;;;;;;;;;;;;;;31.66;28.65;99833.06;5091321;28;19919;-76
2023/06/06 12:05:15;;;;;;;;;;;;;;;31.62;27.43;99832.09;5123890;27;19924;-78
2023/06/06 12:07:41;;;;;;;;;;;;;;;31.54;29.10;99819.19;5091167;28;19923;-77
2023/06/06 12:10:07;;;;;;;;;;;;;;;31.55;27.93;99816.13;5101017;28;19912;-78
2023/06/06 12:12:42;;;;;;;;;;;;;;;31.65;26.60;99814.28;5131477;28;19915;-77
2023/06/06 12:15:07;;;;;;;;;;;;;;;31.69;27.35;99816.06;5131743;28;20345;-77
2023/06/06 12:17:33;;;;;;;;;;;;;;;31.68;28.05;99810.91;5126710;28;19919;-76
2023/06/06 12:19:58;;;;;;;;;;;;;;;31.84;27.92;99812.16;5111290;28;19915;-77
2023/06/06 12:22:33;;;;;;;;;;;;;;;31.96;27.63;99804.25;5112298;28;19983;-77
2023/06/06 12:24:59;;;;;;;;;;;;;;;31.94;28.24;99800.97;5111596;28;19916;-77
2023/06/06 12:27:27;;;;;;;;;;;;;;;32.05;25.68;99802.34;5113356;28;19912;-78
2023/06/06 12:29:54;;;;;;;;;;;;;;;32.12;27.68;99808.16;5115297;28;19919;-77
2023/06/06 12:32:21;;;;;;;;;;;;;;;32.26;26.53;99807.28;5115092;28;19918;-77
2023/06/06 12:34:53;;;;;;;;;;;;;;;32.11;27.85;99798.38;5115416;27;19920;-77
2023/06/06 12:37:18;;;;;;;;;;;;;;;32.33;27.59;99799.44;5123089;27;19920;-76
2023/06/06 12:39:44;;;;;;;;;;;;;;;32.28;24.77;99796.84;5113537;28;20289;-76
2023/06/06 12:42:19;;;;;;;;;;;;;;;32.24;26.83;99785.75;5121105;27;20026;-78